Time;durP1;ratioP1;P1;durP2;ratioP2;P2;SDS_P1;SDS_P2;PMS_P1;PMS_P2;Temp;Humidity;BMP_temperature;BMP_pressure;BME280_temperature;BME280_humidity;BME280_pressure;Samples;Min_cycle;Max_cycle;Signal;HPM_P1;HPM_P2
2023/03/09 00:00:10;;;;;;;74.50;42.50;;;;;;;;;;5033419;28;20424;-69
2023/03/09 00:02:36;;;;;;;69.63;41.37;;;;;;;;;;5035389;28;20159;-69
2023/03/09 00:05:02;;;;;;;76.70;44.07;;;;;;;;;;5037414;28;20416;-69
2023/03/09 00:07:30;;;;;;;70.80;41.63;;;;;;;;;;5019508;28;20225;-68
2023/03/09 00:09:56;;;;;;;70.37;41.57;;;;;;;;;;5037334;28;20539;-67
2023/03/09 00:12:22;;;;;;;76.37;43.67;;;;;;;;;;5036852;28;20202;-67
2023/03/09 00:14:51;;;;;;;76.23;42.93;;;;;;;;;;5037444;28;20421;-67
2023/03/09 00:17:17;;;;;;;74.30;41.97;;;;;;;;;;5036762;28;20195;-67
2023/03/09 00:19:43;;;;;;;62.87;33.00;;;;;;;;;;5019028;28;20413;-68
2023/03/09 00:22:09;;;;;;;72.37;39.47;;;;;;;;;;5036757;28;20270;-67
2023/03/09 00:24:35;;;;;;;66.83;36.20;;;;;;;;;;5036740;28;20179;-68
2023/03/09 00:27:02;;;;;;;82.17;42.67;;;;;;;;;;5062158;23;20202;-67
2023/03/09 00:29:28;;;;;;;74.80;39.00;;;;;;;;;;5069340;28;20278;-69
2023/03/09 00:31:55;;;;;;;75.47;40.93;;;;;;;;;;5082404;28;20929;-70
2023/03/09 00:34:21;;;;;;;81.50;43.37;;;;;;;;;;5059516;28;20414;-68
2023/03/09 00:36:48;;;;;;;82.00;42.87;;;;;;;;;;5077586;28;20415;-70
2023/03/09 00:39:14;;;;;;;86.70;44.27;;;;;;;;;;5077451;28;20537;-68
2023/03/09 00:41:41;;;;;;;85.47;44.30;;;;;;;;;;5077226;28;20905;-67
2023/03/09 00:44:07;;;;;;;85.40;41.97;;;;;;;;;;5076911;28;20499;-68
2023/03/09 00:46:34;;;;;;;81.27;42.10;;;;;;;;;;5077057;28;20440;-67
2023/03/09 00:49:02;;;;;;;84.87;40.50;;;;;;;;;;5058756;28;20580;-69
2023/03/09 00:51:28;;;;;;;89.13;43.50;;;;;;;;;;5076667;28;20201;-67
2023/03/09 00:53:55;;;;;;;92.23;43.80;;;;;;;;;;5077028;28;20917;-67
2023/03/09 00:56:25;;;;;;;89.57;44.83;;;;;;;;;;5058841;28;20174;-67
2023/03/09 00:58:51;;;;;;;86.13;44.20;;;;;;;;;;5076408;28;20493;-67
2023/03/09 01:01:17;;;;;;;85.83;42.03;;;;;;;;;;5058485;28;20566;-68
2023/03/09 01:03:44;;;;;;;93.57;45.10;;;;;;;;;;5076459;28;20181;-67
2023/03/09 01:06:10;;;;;;;83.37;42.57;;;;;;;;;;5076820;28;20411;-67
2023/03/09 01:08:36;;;;;;;84.87;42.10;;;;;;;;;;5076297;28;20442;-67
2023/03/09 01:11:05;;;;;;;79.50;41.00;;;;;;;;;;5058201;28;20703;-67
2023/03/09 01:13:31;;;;;;;69.90;36.27;;;;;;;;;;5076178;28;20894;-67
2023/03/09 01:15:57;;;;;;;84.17;41.23;;;;;;;;;;5076441;28;20407;-67
2023/03/09 01:18:23;;;;;;;75.47;39.40;;;;;;;;;;5076169;28;20200;-67
2023/03/09 01:20:49;;;;;;;72.77;35.40;;;;;;;;;;5058556;28;20217;-67
2023/03/09 01:23:15;;;;;;;70.60;35.77;;;;;;;;;;5076346;28;20189;-67
2023/03/09 01:25:41;;;;;;;70.90;37.30;;;;;;;;;;5058194;28;20197;-67
2023/03/09 01:28:07;;;;;;;70.93;39.30;;;;;;;;;;5076237;28;20522;-67
2023/03/09 01:30:33;;;;;;;74.03;36.97;;;;;;;;;;5058055;28;20201;-66
2023/03/09 01:32:59;;;;;;;73.00;37.63;;;;;;;;;;5058128;28;20210;-67
2023/03/09 01:35:25;;;;;;;69.83;36.07;;;;;;;;;;5058228;28;20489;-69
2023/03/09 01:37:51;;;;;;;70.57;36.93;;;;;;;;;;5076075;28;20432;-67
2023/03/09 01:40:19;;;;;;;54.47;29.47;;;;;;;;;;5075654;28;20184;-67
2023/03/09 01:42:53;;;;;;;68.80;35.70;;;;;;;;;;5076326;28;20639;-67
2023/03/09 01:45:19;;;;;;;71.13;37.40;;;;;;;;;;5058167;28;20801;-67
2023/03/09 01:47:45;;;;;;;70.70;38.03;;;;;;;;;;5057786;28;20470;-67
2023/03/09 01:50:12;;;;;;;76.10;39.43;;;;;;;;;;5075684;28;20205;-67
2023/03/09 01:52:38;;;;;;;78.43;40.07;;;;;;;;;;5075639;28;20779;-67
2023/03/09 01:55:08;;;;;;;67.23;35.33;;;;;;;;;;5075417;28;20826;-69
2023/03/09 01:57:45;;;;;;;73.63;35.50;;;;;;;;;;5075694;28;20839;-69
2023/03/09 02:00:12;;;;;;;75.43;38.70;;;;;;;;;;5075629;28;20460;-67
2023/03/09 02:02:42;;;;;;;81.80;40.97;;;;;;;;;;5057769;28;20420;-67
2023/03/09 02:05:11;;;;;;;79.93;42.23;;;;;;;;;;5057926;28;20451;-67
2023/03/09 02:07:37;;;;;;;78.73;39.60;;;;;;;;;;5075533;28;20460;-67
2023/03/09 02:10:09;;;;;;;80.07;42.03;;;;;;;;;;5075606;28;20456;-67
2023/03/09 02:12:35;;;;;;;86.73;44.80;;;;;;;;;;5075831;28;20882;-67
2023/03/09 02:15:02;;;;;;;83.57;43.53;;;;;;;;;;5057967;28;20173;-67
2023/03/09 02:17:29;;;;;;;84.10;44.50;;;;;;;;;;5075575;28;20671;-68
2023/03/09 02:20:06;;;;;;;81.07;41.67;;;;;;;;;;5058000;28;20283;-68
2023/03/09 02:22:33;;;;;;;79.30;41.27;;;;;;;;;;5057615;28;20704;-69
2023/03/09 02:25:05;;;;;;;83.27;42.60;;;;;;;;;;5057178;28;20439;-67
2023/03/09 02:27:32;;;;;;;71.77;39.03;;;;;;;;;;5074917;28;20205;-67
2023/03/09 02:29:58;;;;;;;79.07;42.53;;;;;;;;;;5056781;28;20575;-67
2023/03/09 02:32:24;;;;;;;81.27;42.53;;;;;;;;;;5074662;28;20199;-67
2023/03/09 02:34:50;;;;;;;83.27;44.60;;;;;;;;;;5056851;28;20613;-68
2023/03/09 02:37:32;;;;;;;77.43;42.47;;;;;;;;;;5076257;28;20667;-68
2023/03/09 02:40:01;;;;;;;80.77;42.70;;;;;;;;;;5058231;28;20636;-68
2023/03/09 02:42:27;;;;;;;87.50;43.97;;;;;;;;;;5076664;28;20510;-68
2023/03/09 02:44:54;;;;;;;88.67;43.83;;;;;;;;;;5071338;28;20477;-68
2023/03/09 02:47:21;;;;;;;89.60;43.77;;;;;;;;;;5091569;28;20208;-68
2023/03/09 02:49:47;;;;;;;87.70;44.00;;;;;;;;;;5090149;28;20468;-69
2023/03/09 02:52:13;;;;;;;79.90;40.43;;;;;;;;;;5074163;28;20212;-68
2023/03/09 02:54:39;;;;;;;83.37;42.53;;;;;;;;;;5058671;28;20184;-68
2023/03/09 02:57:05;;;;;;;81.53;43.63;;;;;;;;;;5056892;28;20173;-70
2023/03/09 02:59:31;;;;;;;83.60;43.30;;;;;;;;;;5057401;28;20201;-68
2023/03/09 03:01:57;;;;;;;82.63;43.63;;;;;;;;;;5075263;28;20415;-67
2023/03/09 03:04:23;;;;;;;83.33;43.43;;;;;;;;;;5056577;28;20185;-68
2023/03/09 03:06:49;;;;;;;89.23;45.03;;;;;;;;;;5074768;28;20409;-68
2023/03/09 03:09:15;;;;;;;81.23;43.83;;;;;;;;;;5056717;28;20288;-67
2023/03/09 03:11:41;;;;;;;80.67;43.53;;;;;;;;;;5075569;28;20263;-68
2023/03/09 03:14:07;;;;;;;78.27;41.53;;;;;;;;;;5075675;28;20178;-68
2023/03/09 03:16:34;;;;;;;87.20;41.83;;;;;;;;;;5075092;28;20174;-68
2023/03/09 03:19:00;;;;;;;83.70;42.80;;;;;;;;;;5075047;28;20610;-68
2023/03/09 03:21:26;;;;;;;83.10;43.80;;;;;;;;;;5074920;28;20200;-68
2023/03/09 03:23:52;;;;;;;83.57;42.93;;;;;;;;;;5057029;28;20937;-68
2023/03/09 03:26:18;;;;;;;87.93;44.87;;;;;;;;;;5075585;28;20251;-68
2023/03/09 03:28:44;;;;;;;84.13;44.23;;;;;;;;;;5056767;28;20701;-68
2023/03/09 03:31:11;;;;;;;91.10;44.93;;;;;;;;;;5075024;28;20213;-70
2023/03/09 03:33:37;;;;;;;85.97;42.37;;;;;;;;;;5074925;28;20173;-68
2023/03/09 03:36:03;;;;;;;89.63;44.30;;;;;;;;;;5057386;28;20178;-68
2023/03/09 03:38:29;;;;;;;90.20;45.40;;;;;;;;;;5074695;28;20486;-68
2023/03/09 03:40:55;;;;;;;84.77;44.33;;;;;;;;;;5057415;28;20177;-68
2023/03/09 03:43:21;;;;;;;88.80;44.87;;;;;;;;;;5056416;28;20477;-68
2023/03/09 03:45:47;;;;;;;81.73;42.97;;;;;;;;;;5075781;28;20178;-68
2023/03/09 03:48:14;;;;;;;88.93;42.63;;;;;;;;;;5056586;28;20289;-68
2023/03/09 03:50:40;;;;;;;85.17;42.57;;;;;;;;;;5056540;28;20225;-68
2023/03/09 03:53:06;;;;;;;84.00;42.77;;;;;;;;;;5074227;28;20253;-68
2023/03/09 03:55:32;;;;;;;90.73;44.20;;;;;;;;;;5056459;28;20209;-68
2023/03/09 03:57:58;;;;;;;87.03;42.00;;;;;;;;;;5075130;28;20460;-68
2023/03/09 04:00:24;;;;;;;84.10;42.07;;;;;;;;;;5074699;28;20415;-69
2023/03/09 04:02:51;;;;;;;87.83;43.73;;;;;;;;;;5057478;28;20210;-68
2023/03/09 04:05:17;;;;;;;93.07;43.27;;;;;;;;;;5074737;28;20427;-68
2023/03/09 04:07:43;;;;;;;91.13;45.17;;;;;;;;;;5094573;28;20207;-69
2023/03/09 04:10:09;;;;;;;102.17;47.97;;;;;;;;;;5092220;28;20206;-68
2023/03/09 04:12:35;;;;;;;97.13;46.17;;;;;;;;;;5074271;28;20185;-68
2023/03/09 04:15:01;;;;;;;104.70;48.50;;;;;;;;;;5081697;28;20174;-68
2023/03/09 04:17:27;;;;;;;94.03;45.20;;;;;;;;;;5075553;28;20216;-68
2023/03/09 04:19:53;;;;;;;95.47;46.33;;;;;;;;;;5075525;28;20177;-67
2023/03/09 04:22:19;;;;;;;102.20;46.07;;;;;;;;;;5074783;28;20182;-68
2023/03/09 04:24:48;;;;;;;94.93;45.43;;;;;;;;;;5057604;28;20251;-68
2023/03/09 04:27:14;;;;;;;98.17;45.70;;;;;;;;;;5074257;28;20223;-68
2023/03/09 04:29:40;;;;;;;101.30;46.33;;;;;;;;;;5056022;28;20510;-69
2023/03/09 04:32:06;;;;;;;107.80;46.77;;;;;;;;;;5057309;28;20171;-68
2023/03/09 04:34:32;;;;;;;102.13;46.73;;;;;;;;;;5056357;28;20264;-68
2023/03/09 04:36:58;;;;;;;100.13;47.43;;;;;;;;;;5075127;28;20464;-67
2023/03/09 04:39:24;;;;;;;101.33;45.63;;;;;;;;;;5074394;28;20174;-68
2023/03/09 04:41:50;;;;;;;105.37;47.27;;;;;;;;;;5074647;28;20174;-68
2023/03/09 04:44:16;;;;;;;95.47;46.60;;;;;;;;;;5055824;28;20269;-68
2023/03/09 04:46:42;;;;;;;98.37;47.43;;;;;;;;;;5073880;28;20174;-68
2023/03/09 04:49:08;;;;;;;93.20;45.77;;;;;;;;;;5075406;28;20243;-68
2023/03/09 04:51:34;;;;;;;99.87;47.40;;;;;;;;;;5077959;28;20202;-68
2023/03/09 04:54:00;;;;;;;102.30;47.47;;;;;;;;;;5077317;28;20636;-68
2023/03/09 04:56:26;;;;;;;99.20;44.67;;;;;;;;;;5077851;28;20174;-68
2023/03/09 04:58:52;;;;;;;102.30;46.70;;;;;;;;;;5079336;28;20198;-69
2023/03/09 05:01:18;;;;;;;97.93;45.47;;;;;;;;;;5060785;28;20209;-67
2023/03/09 05:03:44;;;;;;;105.53;48.73;;;;;;;;;;5077983;28;20178;-68
2023/03/09 05:06:10;;;;;;;101.83;46.40;;;;;;;;;;5077050;28;20430;-66
2023/03/09 05:08:36;;;;;;;99.57;46.03;;;;;;;;;;5077280;28;20553;-68
2023/03/09 05:11:02;;;;;;;110.47;48.10;;;;;;;;;;5076602;28;20197;-68
2023/03/09 05:13:28;;;;;;;113.30;48.67;;;;;;;;;;5077179;28;20546;-68
2023/03/09 05:15:54;;;;;;;108.50;47.60;;;;;;;;;;5059193;28;20181;-68
2023/03/09 05:18:20;;;;;;;111.93;48.50;;;;;;;;;;5059531;28;20733;-67
2023/03/09 05:20:46;;;;;;;108.17;48.77;;;;;;;;;;5059551;28;20217;-68
2023/03/09 05:23:12;;;;;;;113.40;47.60;;;;;;;;;;5077727;28;20906;-68
2023/03/09 05:25:38;;;;;;;104.80;45.43;;;;;;;;;;5077450;28;20419;-68
2023/03/09 05:28:07;;;;;;;113.70;48.33;;;;;;;;;;5076526;28;20213;-69
2023/03/09 05:30:33;;;;;;;102.93;44.90;;;;;;;;;;5079556;28;20208;-68
2023/03/09 05:32:59;;;;;;;109.83;47.57;;;;;;;;;;5077928;28;20174;-68
2023/03/09 05:35:27;;;;;;;117.13;48.83;;;;;;;;;;5060414;28;20239;-68
2023/03/09 05:37:53;;;;;;;117.90;48.33;;;;;;;;;;5079062;28;20194;-68
2023/03/09 05:40:22;;;;;;;108.40;46.33;;;;;;;;;;5078350;28;20239;-68
2023/03/09 05:42:47;;;;;;;117.83;49.43;;;;;;;;;;5059919;28;20182;-68
2023/03/09 05:45:13;;;;;;;122.57;49.23;;;;;;;;;;5058175;28;20431;-68
2023/03/09 05:47:40;;;;;;;115.23;46.83;;;;;;;;;;5076370;28;20194;-68
2023/03/09 05:50:06;;;;;;;117.63;50.83;;;;;;;;;;5058269;28;20643;-68
2023/03/09 05:52:32;;;;;;;113.00;46.87;;;;;;;;;;5075781;28;20408;-68
2023/03/09 05:54:58;;;;;;;122.03;49.37;;;;;;;;;;5057410;28;20192;-68
2023/03/09 05:57:24;;;;;;;117.67;48.40;;;;;;;;;;5075564;28;20281;-68
2023/03/09 05:59:50;;;;;;;120.90;49.77;;;;;;;;;;5075345;28;20186;-68
2023/03/09 06:02:15;;;;;;;114.00;49.00;;;;;;;;;;5057967;28;20182;-68
2023/03/09 06:04:41;;;;;;;116.13;48.30;;;;;;;;;;5075937;28;20216;-68
2023/03/09 06:07:07;;;;;;;122.57;50.27;;;;;;;;;;5075816;28;20174;-68
2023/03/09 06:09:33;;;;;;;114.33;49.13;;;;;;;;;;5075396;28;20648;-68
2023/03/09 06:11:59;;;;;;;118.07;48.57;;;;;;;;;;5057861;28;20639;-69
2023/03/09 06:14:25;;;;;;;109.90;47.33;;;;;;;;;;5057819;28;20670;-68
2023/03/09 06:16:51;;;;;;;114.83;47.67;;;;;;;;;;5076240;28;20713;-68
2023/03/09 06:19:17;;;;;;;119.73;47.93;;;;;;;;;;5075447;28;20190;-69
2023/03/09 06:21:43;;;;;;;116.00;47.93;;;;;;;;;;5075163;28;20177;-68
2023/03/09 06:24:09;;;;;;;111.87;45.23;;;;;;;;;;5074874;28;20232;-67
2023/03/09 06:26:35;;;;;;;125.13;50.63;;;;;;;;;;5057492;28;20182;-67
2023/03/09 06:29:01;;;;;;;124.87;49.27;;;;;;;;;;5074869;28;20213;-68
2023/03/09 06:31:27;;;;;;;125.33;48.30;;;;;;;;;;5075058;28;20255;-68
2023/03/09 06:33:53;;;;;;;126.20;49.40;;;;;;;;;;5057157;28;20413;-68
2023/03/09 06:36:19;;;;;;;118.50;46.83;;;;;;;;;;5057138;28;20666;-68
2023/03/09 06:38:45;;;;;;;124.40;49.47;;;;;;;;;;5057626;28;20205;-70
2023/03/09 06:41:12;;;;;;;122.40;49.73;;;;;;;;;;5057474;28;20565;-68
2023/03/09 06:43:39;;;;;;;117.67;48.27;;;;;;;;;;5057141;28;20189;-68
2023/03/09 06:46:05;;;;;;;108.13;45.43;;;;;;;;;;5075785;28;20227;-68
2023/03/09 06:48:31;;;;;;;121.73;46.90;;;;;;;;;;5057252;28;20292;-68
2023/03/09 06:50:57;;;;;;;128.03;49.77;;;;;;;;;;5056565;28;20227;-69
2023/03/09 06:53:23;;;;;;;129.03;50.53;;;;;;;;;;5057055;28;20270;-68
2023/03/09 06:55:49;;;;;;;112.23;45.77;;;;;;;;;;5056779;28;20186;-68
2023/03/09 06:58:15;;;;;;;120.67;48.00;;;;;;;;;;5057435;28;20504;-70
2023/03/09 07:00:43;;;;;;;112.90;47.83;;;;;;;;;;5075536;28;20177;-68
2023/03/09 07:03:14;;;;;;;129.83;49.90;;;;;;;;;;5076013;28;20608;-68
2023/03/09 07:05:40;;;;;;;112.10;47.20;;;;;;;;;;5076286;28;20166;-69
2023/03/09 07:08:06;;;;;;;118.57;48.27;;;;;;;;;;5076047;28;20296;-68
2023/03/09 07:10:32;;;;;;;120.70;48.17;;;;;;;;;;5092326;22;20222;-69
2023/03/09 07:12:58;;;;;;;122.97;46.43;;;;;;;;;;5072513;28;20524;-68
2023/03/09 07:15:24;;;;;;;121.03;48.63;;;;;;;;;;5072905;28;20170;-68
2023/03/09 07:17:50;;;;;;;112.10;45.80;;;;;;;;;;5074460;28;20174;-68
2023/03/09 07:20:16;;;;;;;115.37;46.70;;;;;;;;;;5073229;28;20251;-68
2023/03/09 07:22:42;;;;;;;125.33;49.27;;;;;;;;;;5074524;28;20181;-68
2023/03/09 07:25:08;;;;;;;115.70;48.50;;;;;;;;;;5074746;28;20178;-70
2023/03/09 07:27:34;;;;;;;116.33;47.60;;;;;;;;;;5074417;28;20658;-67
2023/03/09 07:30:00;;;;;;;115.20;45.70;;;;;;;;;;5073301;28;20217;-67
2023/03/09 07:32:27;;;;;;;116.67;47.47;;;;;;;;;;5074857;28;20205;-67
2023/03/09 07:34:53;;;;;;;102.27;44.23;;;;;;;;;;5074549;28;20209;-68
2023/03/09 07:37:19;;;;;;;110.47;46.13;;;;;;;;;;5074898;28;20235;-67
2023/03/09 07:39:45;;;;;;;119.30;47.60;;;;;;;;;;5074652;28;20218;-67
2023/03/09 07:42:11;;;;;;;106.93;45.33;;;;;;;;;;5074711;28;20236;-67
2023/03/09 07:44:37;;;;;;;101.20;43.53;;;;;;;;;;5073562;28;20673;-67
2023/03/09 07:47:03;;;;;;;109.90;46.33;;;;;;;;;;5073691;28;20549;-68
2023/03/09 07:49:29;;;;;;;106.27;44.27;;;;;;;;;;5073319;28;20331;-68
2023/03/09 07:51:56;;;;;;;105.60;44.73;;;;;;;;;;5074691;28;20209;-66
2023/03/09 07:54:22;;;;;;;104.63;46.50;;;;;;;;;;5073139;28;20170;-68
2023/03/09 07:56:50;;;;;;;109.37;47.67;;;;;;;;;;5074627;28;20193;-68
2023/03/09 07:59:17;;;;;;;119.90;53.40;;;;;;;;;;5073121;28;20285;-68
2023/03/09 08:01:43;;;;;;;106.57;47.83;;;;;;;;;;5074286;28;20178;-67
2023/03/09 08:04:09;;;;;;;104.37;47.20;;;;;;;;;;5073064;28;20189;-68
2023/03/09 08:06:39;;;;;;;102.53;45.83;;;;;;;;;;5074361;28;20185;-68
2023/03/09 08:09:06;;;;;;;102.20;46.50;;;;;;;;;;5074224;28;20209;-68
2023/03/09 08:11:32;;;;;;;108.60;48.27;;;;;;;;;;5074598;28;20675;-67
2023/03/09 08:13:59;;;;;;;113.87;50.93;;;;;;;;;;5074711;28;20181;-67
2023/03/09 08:16:25;;;;;;;115.63;53.50;;;;;;;;;;5074341;28;20189;-68
2023/03/09 08:18:51;;;;;;;124.33;53.73;;;;;;;;;;5073007;28;20193;-68
2023/03/09 08:21:17;;;;;;;125.67;53.23;;;;;;;;;;5073969;28;20182;-69
2023/03/09 08:23:46;;;;;;;119.43;52.53;;;;;;;;;;5075816;28;20174;-68
2023/03/09 08:26:12;;;;;;;122.83;51.63;;;;;;;;;;5078638;28;20182;-68
2023/03/09 08:28:39;;;;;;;126.47;53.03;;;;;;;;;;5078242;28;20210;-67
2023/03/09 08:31:06;;;;;;;129.17;53.80;;;;;;;;;;5078003;28;20258;-68
2023/03/09 08:33:32;;;;;;;131.80;53.37;;;;;;;;;;5077107;28;20182;-67
2023/03/09 08:35:58;;;;;;;124.07;52.60;;;;;;;;;;5078545;28;20628;-68
2023/03/09 08:38:24;;;;;;;123.43;52.77;;;;;;;;;;5076748;28;20239;-68
2023/03/09 08:40:50;;;;;;;124.77;54.27;;;;;;;;;;5076816;28;20300;-68
2023/03/09 08:43:16;;;;;;;130.03;53.97;;;;;;;;;;5077761;28;20209;-68
2023/03/09 08:45:42;;;;;;;134.50;52.60;;;;;;;;;;5077717;28;20598;-67
2023/03/09 08:48:08;;;;;;;111.57;52.90;;;;;;;;;;5077377;28;20219;-67
2023/03/09 08:50:34;;;;;;;131.37;53.60;;;;;;;;;;5076271;28;20565;-68
2023/03/09 08:53:00;;;;;;;126.77;53.83;;;;;;;;;;5077930;28;20261;-67
2023/03/09 08:55:26;;;;;;;130.73;53.43;;;;;;;;;;5077771;28;20599;-69
2023/03/09 08:57:52;;;;;;;128.83;55.40;;;;;;;;;;5076377;28;20177;-66
2023/03/09 09:00:18;;;;;;;131.20;55.37;;;;;;;;;;5077813;28;20679;-67
2023/03/09 09:02:44;;;;;;;119.63;54.33;;;;;;;;;;5077775;28;20186;-67
2023/03/09 09:05:10;;;;;;;126.90;52.10;;;;;;;;;;5077752;28;20185;-69
2023/03/09 09:07:37;;;;;;;113.23;50.87;;;;;;;;;;5075868;28;20265;-66
2023/03/09 09:10:03;;;;;;;120.10;52.53;;;;;;;;;;5077267;28;20658;-67
2023/03/09 09:12:32;;;;;;;114.17;52.80;;;;;;;;;;5077718;28;20550;-68
2023/03/09 09:14:58;;;;;;;120.17;53.93;;;;;;;;;;5077250;28;20176;-68
2023/03/09 09:17:24;;;;;;;118.33;53.40;;;;;;;;;;5077318;28;20181;-68
2023/03/09 09:19:51;;;;;;;112.03;52.00;;;;;;;;;;5075700;28;20205;-69
2023/03/09 09:22:17;;;;;;;110.33;52.63;;;;;;;;;;5077536;28;20177;-69
2023/03/09 09:24:44;;;;;;;110.07;50.97;;;;;;;;;;5076981;28;20177;-66
2023/03/09 09:27:11;;;;;;;107.00;50.93;;;;;;;;;;5076765;28;20178;-68
2023/03/09 09:29:37;;;;;;;103.97;50.77;;;;;;;;;;5076695;28;20216;-69
2023/03/09 09:32:04;;;;;;;103.50;49.77;;;;;;;;;;5076996;28;20609;-66
2023/03/09 09:34:31;;;;;;;103.50;47.83;;;;;;;;;;5075085;28;20231;-70
2023/03/09 09:36:57;;;;;;;100.40;50.13;;;;;;;;;;5076528;28;20177;-69
2023/03/09 09:39:23;;;;;;;107.60;49.63;;;;;;;;;;5076508;28;20190;-67
2023/03/09 09:41:51;;;;;;;106.33;50.40;;;;;;;;;;5077233;28;20662;-68
2023/03/09 09:44:27;;;;;;;107.93;50.43;;;;;;;;;;5077159;28;20193;-67
2023/03/09 09:46:54;;;;;;;93.30;48.03;;;;;;;;;;5077008;28;20170;-67
2023/03/09 09:49:22;;;;;;;88.67;46.73;;;;;;;;;;5077678;28;20201;-68
2023/03/09 09:52:03;;;;;;;92.63;47.27;;;;;;;;;;5076737;28;20243;-67
2023/03/09 09:54:32;;;;;;;96.90;46.63;;;;;;;;;;5075109;28;20182;-68
2023/03/09 09:57:00;;;;;;;87.83;45.00;;;;;;;;;;5076918;28;20174;-66
2023/03/09 09:59:33;;;;;;;81.77;47.33;;;;;;;;;;5076740;28;20339;-66
2023/03/09 10:01:59;;;;;;;77.17;44.93;;;;;;;;;;5075731;28;20173;-68
2023/03/09 10:04:31;;;;;;;76.30;43.57;;;;;;;;;;5076935;28;20177;-66
2023/03/09 10:06:59;;;;;;;85.80;45.47;;;;;;;;;;5078999;28;20189;-66
2023/03/09 10:09:27;;;;;;;74.80;43.20;;;;;;;;;;5078904;28;20217;-66
2023/03/09 10:11:55;;;;;;;77.03;43.80;;;;;;;;;;5078344;28;20266;-67
2023/03/09 10:14:27;;;;;;;74.17;42.97;;;;;;;;;;5077018;28;20233;-67
2023/03/09 10:16:59;;;;;;;75.20;41.80;;;;;;;;;;5076216;28;20165;-66
2023/03/09 10:19:51;;;;;;;81.83;43.43;;;;;;;;;;5076038;28;20194;-67
2023/03/09 10:22:25;;;;;;;69.23;40.87;;;;;;;;;;5072249;28;20220;-66
2023/03/09 10:24:52;;;;;;;68.77;40.00;;;;;;;;;;5075903;28;20674;-67
2023/03/09 10:27:20;;;;;;;68.90;40.73;;;;;;;;;;5075907;28;20272;-69
2023/03/09 10:30:05;;;;;;;62.13;39.50;;;;;;;;;;5075591;28;20205;-68
2023/03/09 10:32:40;;;;;;;66.60;39.13;;;;;;;;;;5075400;28;20593;-67
2023/03/09 10:35:25;;;;;;;60.53;37.97;;;;;;;;;;5076075;28;20177;-68
2023/03/09 10:37:51;;;;;;;56.53;35.97;;;;;;;;;;5075858;28;20184;-67
2023/03/09 10:40:20;;;;;;;58.63;38.17;;;;;;;;;;5074092;28;20209;-68
2023/03/09 10:42:46;;;;;;;57.87;37.67;;;;;;;;;;5075370;28;20178;-66
2023/03/09 10:45:13;;;;;;;59.33;37.30;;;;;;;;;;5075616;28;20233;-67
2023/03/09 10:47:57;;;;;;;58.93;39.20;;;;;;;;;;5074879;28;20177;-67
2023/03/09 10:50:25;;;;;;;59.17;35.50;;;;;;;;;;5075751;28;20205;-67
2023/03/09 10:52:52;;;;;;;55.70;35.87;;;;;;;;;;5075194;28;20174;-73
2023/03/09 10:55:37;;;;;;;56.07;35.03;;;;;;;;;;5074234;28;20173;-67
2023/03/09 10:58:14;;;;;;;58.77;34.97;;;;;;;;;;5074252;28;20166;-67
2023/03/09 11:00:57;;;;;;;54.30;34.60;;;;;;;;;;5075629;28;20680;-66
2023/03/09 11:03:25;;;;;;;53.40;34.70;;;;;;;;;;5074155;28;20182;-67
2023/03/09 11:05:51;;;;;;;53.87;34.43;;;;;;;;;;5074106;28;20185;-67
2023/03/09 11:08:27;;;;;;;59.20;35.30;;;;;;;;;;5075378;28;20177;-67
2023/03/09 11:11:16;;;;;;;55.93;35.40;;;;;;;;;;5074752;28;20296;-71
2023/03/09 11:13:46;;;;;;;55.37;34.17;;;;;;;;;;5075365;28;20192;-66
2023/03/09 11:16:17;;;;;;;55.70;36.03;;;;;;;;;;5075278;28;20173;-68
2023/03/09 11:18:45;;;;;;;53.10;33.00;;;;;;;;;;5073613;28;20678;-67
2023/03/09 11:21:20;;;;;;;45.63;29.57;;;;;;;;;;5075097;28;20538;-66
2023/03/09 11:23:48;;;;;;;44.70;28.90;;;;;;;;;;5073345;28;20251;-67
2023/03/09 11:26:23;;;;;;;40.77;27.53;;;;;;;;;;5072665;28;20189;-68
2023/03/09 11:29:04;;;;;;;47.23;32.37;;;;;;;;;;5073407;28;20280;-67
2023/03/09 11:31:37;;;;;;;44.13;29.63;;;;;;;;;;5073247;28;20338;-67
2023/03/09 11:34:08;;;;;;;56.83;44.13;;;;;;;;;;5073614;28;20180;-67
2023/03/09 11:36:38;;;;;;;45.23;30.33;;;;;;;;;;5073325;28;20174;-67
2023/03/09 11:39:06;;;;;;;47.03;30.77;;;;;;;;;;5073554;28;20675;-68
2023/03/09 11:41:38;;;;;;;53.23;36.97;;;;;;;;;;5073400;28;20640;-68
2023/03/09 11:44:11;;;;;;;47.60;31.87;;;;;;;;;;5071931;28;20200;-66
2023/03/09 11:46:38;;;;;;;43.70;30.57;;;;;;;;;;5071818;28;20605;-68
2023/03/09 11:49:08;;;;;;;48.67;32.27;;;;;;;;;;5073004;28;20251;-68
2023/03/09 11:51:39;;;;;;;57.23;39.43;;;;;;;;;;5072976;28;20209;-67
2023/03/09 11:54:20;;;;;;;50.70;34.13;;;;;;;;;;5071987;28;20606;-68
2023/03/09 11:56:47;;;;;;;48.97;33.13;;;;;;;;;;5073485;28;20584;-68
2023/03/09 11:59:18;;;;;;;49.63;34.57;;;;;;;;;;5075848;28;20198;-68
2023/03/09 12:01:53;;;;;;;56.90;36.37;;;;;;;;;;5077823;28;20177;-67
2023/03/09 12:04:19;;;;;;;54.03;35.83;;;;;;;;;;5077736;28;20185;-68
2023/03/09 12:07:06;;;;;;;50.60;34.87;;;;;;;;;;5077273;28;20181;-67
2023/03/09 12:09:51;;;;;;;46.33;30.03;;;;;;;;;;5077337;28;20266;-67
2023/03/09 12:12:36;;;;;;;49.10;33.60;;;;;;;;;;5076579;28;20192;-67
2023/03/09 12:15:21;;;;;;;45.97;30.20;;;;;;;;;;5080646;28;20257;-68
2023/03/09 12:17:49;;;;;;;42.17;29.13;;;;;;;;;;5075832;28;20177;-68
2023/03/09 12:20:28;;;;;;;42.73;29.00;;;;;;;;;;5075861;28;20201;-65
2023/03/09 12:22:54;;;;;;;41.33;28.40;;;;;;;;;;5076255;28;20169;-68
2023/03/09 12:25:22;;;;;;;42.40;27.87;;;;;;;;;;5076969;28;20192;-68
2023/03/09 12:27:59;;;;;;;43.17;29.50;;;;;;;;;;5077184;28;20177;-68
2023/03/09 12:30:41;;;;;;;42.90;29.53;;;;;;;;;;5076863;28;20213;-68
2023/03/09 12:33:10;;;;;;;43.93;30.67;;;;;;;;;;5076678;28;20166;-67
2023/03/09 12:35:41;;;;;;;42.73;29.07;;;;;;;;;;5076526;28;20639;-68
2023/03/09 12:38:16;;;;;;;49.30;31.20;;;;;;;;;;5076510;28;20205;-69
2023/03/09 12:40:42;;;;;;;49.87;33.83;;;;;;;;;;5075578;28;20193;-68
2023/03/09 12:43:28;;;;;;;56.13;39.30;;;;;;;;;;5077093;28;20174;-65
2023/03/09 12:45:54;;;;;;;65.57;41.57;;;;;;;;;;5076943;28;20227;-68
2023/03/09 12:48:25;;;;;;;57.73;39.43;;;;;;;;;;5074911;28;20573;-68
2023/03/09 12:50:59;;;;;;;67.17;44.73;;;;;;;;;;5076331;28;20231;-67
2023/03/09 12:53:27;;;;;;;61.67;40.20;;;;;;;;;;5075444;28;20166;-68
2023/03/09 12:55:55;;;;;;;60.43;38.27;;;;;;;;;;5077423;28;20174;-66
2023/03/09 12:58:21;;;;;;;60.43;37.03;;;;;;;;;;5075815;28;20228;-66
2023/03/09 13:01:05;;;;;;;61.13;38.97;;;;;;;;;;5077406;28;20566;-67
2023/03/09 13:03:41;;;;;;;63.57;39.83;;;;;;;;;;5077446;28;20161;-68
2023/03/09 13:06:26;;;;;;;64.13;41.73;;;;;;;;;;5077248;28;20178;-68
2023/03/09 13:08:57;;;;;;;61.27;40.20;;;;;;;;;;5075144;28;20217;-68
2023/03/09 13:11:28;;;;;;;70.50;42.23;;;;;;;;;;5076301;28;20606;-68
2023/03/09 13:13:58;;;;;;;71.23;42.83;;;;;;;;;;5075462;28;20178;-68
2023/03/09 13:16:27;;;;;;;66.97;40.50;;;;;;;;;;5076535;28;20223;-68
2023/03/09 13:19:20;;;;;;;62.57;38.23;;;;;;;;;;5075224;28;20194;-68
2023/03/09 13:22:05;;;;;;;62.70;34.60;;;;;;;;;;5061568;28;20193;-68
2023/03/09 13:24:43;;;;;;;64.70;39.97;;;;;;;;;;5076769;28;20645;-67
2023/03/09 13:27:09;;;;;;;69.13;39.83;;;;;;;;;;5075848;28;20178;-67
2023/03/09 13:29:36;;;;;;;65.20;39.60;;;;;;;;;;5075936;28;20209;-70
2023/03/09 13:32:04;;;;;;;69.90;39.23;;;;;;;;;;5098482;22;20317;-67
2023/03/09 13:34:33;;;;;;;61.67;38.30;;;;;;;;;;5057891;28;20640;-69
2023/03/09 13:37:05;;;;;;;73.17;40.37;;;;;;;;;;5057744;28;20639;-69
2023/03/09 13:39:31;;;;;;;72.37;39.30;;;;;;;;;;5075524;28;20221;-70
2023/03/09 13:41:59;;;;;;;71.03;40.40;;;;;;;;;;5057499;28;20216;-69
2023/03/09 13:44:26;;;;;;;75.70;42.03;;;;;;;;;;5075479;28;20178;-69
2023/03/09 13:46:53;;;;;;;68.03;38.63;;;;;;;;;;5057221;28;20182;-69
2023/03/09 13:49:21;;;;;;;61.60;36.20;;;;;;;;;;5075407;28;20181;-69
2023/03/09 13:51:58;;;;;;;69.43;39.67;;;;;;;;;;5075261;28;20217;-68
2023/03/09 13:54:29;;;;;;;65.57;38.07;;;;;;;;;;5075553;28;20549;-68
2023/03/09 13:56:57;;;;;;;64.27;35.70;;;;;;;;;;5057580;28;20610;-69
2023/03/09 13:59:23;;;;;;;59.47;36.73;;;;;;;;;;5075276;28;20174;-69
2023/03/09 14:01:49;;;;;;;66.90;35.73;;;;;;;;;;5075114;28;20204;-68
2023/03/09 14:04:17;;;;;;;221.20;81.10;;;;;;;;;;5056895;28;20181;-69
2023/03/09 14:06:43;;;;;;;192.23;74.17;;;;;;;;;;5056974;28;20639;-69
2023/03/09 14:09:12;;;;;;;178.83;72.77;;;;;;;;;;5074913;28;20207;-69
2023/03/09 14:11:40;;;;;;;97.50;49.97;;;;;;;;;;5056721;28;20202;-69
2023/03/09 14:14:08;;;;;;;68.97;38.23;;;;;;;;;;5074825;28;20174;-69
2023/03/09 14:16:35;;;;;;;59.77;35.47;;;;;;;;;;5074802;28;20569;-69